createdAt,value
2018-02-27T00:00:06.568Z,53.02
2018-02-27T00:01:06.594Z,53.02
2018-02-27T00:02:06.874Z,53.02
2018-02-27T00:03:06.689Z,53.11
2018-02-27T00:04:06.668Z,53.02
2018-02-27T00:05:06.724Z,53.11
2018-02-27T00:06:06.734Z,53.02
2018-02-27T00:07:06.838Z,52.99
2018-02-27T00:08:07.038Z,52.83
2018-02-27T00:09:06.857Z,53.21
2018-02-27T00:10:06.843Z,52.92
2018-02-27T00:11:07.043Z,52.83
2018-02-27T00:12:06.900Z,53.02
2018-02-27T00:13:06.949Z,53.19
2018-02-27T00:14:07.547Z,53.19
2018-02-27T00:15:07.035Z,53.21
2018-02-27T00:16:07.035Z,53.19
2018-02-27T00:17:07.135Z,53.11
2018-02-27T00:18:07.078Z,53.09
2018-02-27T00:19:07.125Z,53.21
2018-02-27T00:20:07.406Z,53.21
2018-02-27T00:21:07.183Z,53.40
2018-02-27T00:22:07.214Z,53.09
2018-02-27T00:23:07.244Z,52.99
2018-02-27T00:24:07.253Z,53.11
2018-02-27T00:25:07.299Z,53.38
2018-02-27T00:26:07.338Z,53.50
2018-02-27T00:27:07.610Z,53.78
2018-02-27T00:28:07.371Z,53.76
2018-02-27T00:29:07.442Z,53.96
2018-02-27T00:30:07.458Z,53.66
2018-02-27T00:31:07.472Z,53.76
2018-02-27T00:32:07.489Z,53.86
2018-02-27T00:33:07.535Z,53.88
2018-02-27T00:34:07.852Z,53.69
2018-02-27T00:35:07.621Z,53.76
2018-02-27T00:36:07.609Z,53.40
2018-02-27T00:37:07.635Z,53.86
2018-02-27T00:38:07.682Z,53.88
2018-02-27T00:39:07.716Z,53.86
2018-02-27T00:40:07.757Z,53.86
2018-02-27T00:41:08.020Z,53.86
2018-02-27T00:42:07.808Z,53.38
2018-02-27T00:43:07.819Z,53.02
2018-02-27T00:44:07.865Z,53.28
2018-02-27T00:45:07.877Z,53.19
2018-02-27T00:46:07.917Z,53.09
2018-02-27T00:47:07.947Z,53.19
2018-02-27T00:48:08.279Z,53.21
2018-02-27T00:49:08.014Z,53.47
2018-02-27T00:50:08.020Z,53.38
2018-02-27T00:51:08.069Z,53.47
2018-02-27T00:52:08.286Z,53.57
2018-02-27T00:53:08.123Z,53.47
2018-02-27T00:54:08.153Z,53.09
2018-02-27T00:55:08.414Z,53.11
2018-02-27T00:56:08.216Z,53.47
2018-02-27T00:57:08.231Z,53.66
2018-02-27T00:58:08.275Z,53.09
2018-02-27T00:59:08.308Z,53.09
2018-02-27T01:00:08.335Z,53.47
2018-02-27T01:01:08.343Z,53.66
2018-02-27T01:02:08.720Z,53.76
2018-02-27T01:03:08.415Z,53.57
2018-02-27T01:04:08.454Z,53.28
2018-02-27T01:05:08.474Z,53.09
2018-02-27T01:06:08.512Z,53.28
2018-02-27T01:07:08.620Z,53.31
2018-02-27T01:08:08.547Z,53.19
2018-02-27T01:09:08.846Z,53.19
2018-02-27T01:10:08.605Z,53.19
2018-02-27T01:11:08.632Z,53.19
2018-02-27T01:12:08.663Z,53.19
2018-02-27T01:13:08.694Z,53.09
2018-02-27T01:14:08.747Z,53.19
2018-02-27T01:15:08.770Z,53.28
2018-02-27T01:16:09.101Z,53.28
2018-02-27T01:17:08.829Z,53.19
2018-02-27T01:18:08.852Z,53.19
2018-02-27T01:19:08.875Z,53.09
2018-02-27T01:20:08.895Z,53.19
2018-02-27T01:21:08.925Z,53.28
2018-02-27T01:22:09.156Z,53.38
2018-02-27T01:23:09.260Z,53.19
2018-02-27T01:24:09.040Z,53.47
2018-02-27T01:25:09.069Z,53.09
2018-02-27T01:26:09.090Z,53.47
2018-02-27T01:27:09.124Z,53.66
2018-02-27T01:28:09.133Z,53.96
2018-02-27T01:29:09.179Z,53.57
2018-02-27T01:30:09.460Z,53.38
2018-02-27T01:31:09.238Z,53.66
2018-02-27T01:32:09.251Z,53.76
2018-02-27T01:33:09.285Z,53.76
2018-02-27T01:34:09.337Z,53.76
2018-02-27T01:35:09.342Z,53.86
2018-02-27T01:36:09.407Z,53.76
2018-02-27T01:37:09.647Z,53.86
2018-02-27T01:38:09.476Z,53.76
2018-02-27T01:39:09.509Z,53.66
2018-02-27T01:40:09.515Z,53.47
2018-02-27T01:41:09.514Z,53.57
2018-02-27T01:42:09.561Z,53.66
2018-02-27T01:43:09.900Z,53.86
2018-02-27T01:44:09.625Z,53.66
2018-02-27T01:45:09.631Z,53.66
2018-02-27T01:46:09.677Z,53.66
2018-02-27T01:47:09.691Z,53.86
2018-02-27T01:48:09.735Z,53.66
2018-02-27T01:49:10.066Z,53.86
2018-02-27T01:50:09.785Z,53.57
2018-02-27T01:51:09.833Z,53.66
2018-02-27T01:52:09.856Z,53.47
2018-02-27T01:53:09.882Z,53.47
2018-02-27T01:54:09.896Z,53.28
2018-02-27T01:55:10.224Z,52.99
2018-02-27T01:56:10.004Z,53.19
2018-02-27T01:57:10.120Z,53.47
2018-02-27T01:58:10.011Z,53.86
2018-02-27T01:59:10.056Z,53.19
2018-02-27T02:00:10.074Z,53.76
2018-02-27T02:01:10.514Z,52.99
2018-02-27T02:02:10.127Z,53.19
2018-02-27T02:03:10.155Z,53.19
2018-02-27T02:04:10.204Z,53.19
2018-02-27T02:05:10.256Z,53.38
2018-02-27T02:06:10.248Z,53.19
2018-02-27T02:07:10.637Z,53.19
2018-02-27T02:08:10.354Z,53.19
2018-02-27T02:09:10.370Z,52.99
2018-02-27T02:10:10.385Z,53.09
2018-02-27T02:11:10.408Z,52.89
2018-02-27T02:12:10.454Z,53.28
2018-02-27T02:13:10.798Z,52.99
2018-02-27T02:14:10.487Z,52.99
2018-02-27T02:15:10.578Z,53.19
2018-02-27T02:16:10.542Z,53.19
2018-02-27T02:17:10.587Z,52.80
2018-02-27T02:18:10.743Z,52.70
2018-02-27T02:19:10.980Z,53.19
2018-02-27T02:20:10.674Z,53.19
2018-02-27T02:21:10.680Z,52.89
2018-02-27T02:22:10.728Z,52.70
2018-02-27T02:23:10.761Z,52.70
2018-02-27T02:24:10.793Z,52.70
2018-02-27T02:25:11.099Z,52.99
2018-02-27T02:26:10.849Z,53.09
2018-02-27T02:27:10.858Z,52.80
2018-02-27T02:28:10.904Z,53.19
2018-02-27T02:29:10.916Z,52.80
2018-02-27T02:30:10.951Z,52.80
2018-02-27T02:31:11.243Z,53.19
2018-02-27T02:32:11.022Z,52.89
2018-02-27T02:33:11.033Z,52.99
2018-02-27T02:34:11.065Z,52.70
2018-02-27T02:35:11.092Z,52.80
2018-02-27T02:36:11.139Z,52.89
2018-02-27T02:37:11.471Z,52.89
2018-02-27T02:38:11.190Z,52.70
2018-02-27T02:39:11.222Z,52.89
2018-02-27T02:40:11.248Z,53.19
2018-02-27T02:41:11.270Z,53.19
2018-02-27T02:42:11.312Z,52.70
2018-02-27T02:43:11.598Z,53.19
2018-02-27T02:44:11.353Z,52.89
2018-02-27T02:45:11.381Z,52.89
2018-02-27T02:46:11.435Z,52.61
2018-02-27T02:47:11.459Z,52.99
2018-02-27T02:48:11.470Z,52.89
2018-02-27T02:49:11.756Z,53.19
2018-02-27T02:50:11.547Z,52.70
2018-02-27T02:51:11.576Z,52.70
2018-02-27T02:52:11.586Z,52.70
2018-02-27T02:53:11.653Z,52.70
2018-02-27T02:54:11.666Z,52.89
2018-02-27T02:55:11.938Z,52.80
2018-02-27T02:56:11.721Z,52.89
2018-02-27T02:57:11.750Z,52.70
2018-02-27T02:58:11.766Z,52.70
2018-02-27T02:59:11.793Z,52.70
2018-02-27T03:00:11.840Z,52.70
2018-02-27T03:01:11.871Z,52.70
2018-02-27T03:02:12.131Z,52.89
2018-02-27T03:03:11.909Z,52.80
2018-02-27T03:04:11.957Z,52.80
2018-02-27T03:05:11.963Z,52.80
2018-02-27T03:06:12.011Z,52.70
2018-02-27T03:07:12.047Z,53.19
2018-02-27T03:08:12.072Z,53.09
2018-02-27T03:09:12.399Z,53.19
2018-02-27T03:10:12.113Z,53.09
2018-02-27T03:11:12.139Z,53.28
2018-02-27T03:12:12.173Z,53.19
2018-02-27T03:13:12.197Z,53.28
2018-02-27T03:14:12.229Z,53.19
2018-02-27T03:15:12.258Z,53.19
2018-02-27T03:16:12.540Z,53.09
2018-02-27T03:17:12.341Z,53.09
2018-02-27T03:18:12.363Z,53.19
2018-02-27T03:19:12.374Z,52.99
2018-02-27T03:20:12.402Z,53.28
2018-02-27T03:21:12.437Z,53.38
2018-02-27T03:22:12.478Z,53.38
2018-02-27T03:23:12.810Z,53.09
2018-02-27T03:24:12.551Z,52.99
2018-02-27T03:25:12.557Z,53.28
2018-02-27T03:26:12.580Z,53.28
2018-02-27T03:27:12.615Z,53.28
2018-02-27T03:28:12.654Z,53.19
2018-02-27T03:29:12.687Z,53.47
2018-02-27T03:30:13.019Z,53.38
2018-02-27T03:31:12.744Z,53.28
2018-02-27T03:32:12.754Z,53.09
2018-02-27T03:33:12.800Z,53.09
2018-02-27T03:34:12.812Z,53.38
2018-02-27T03:35:12.846Z,53.09
2018-02-27T03:36:12.888Z,53.19
2018-02-27T03:37:13.202Z,53.19
2018-02-27T03:38:12.948Z,53.28
2018-02-27T03:39:13.125Z,53.19
2018-02-27T03:40:13.016Z,52.99
2018-02-27T03:41:13.037Z,53.38
2018-02-27T03:42:13.048Z,53.35
2018-02-27T03:43:13.075Z,53.47
2018-02-27T03:44:13.373Z,53.16
2018-02-27T03:45:13.137Z,53.45
2018-02-27T03:46:13.175Z,53.47
2018-02-27T03:47:13.210Z,53.25
2018-02-27T03:48:13.223Z,53.16
2018-02-27T03:49:13.250Z,53.74
2018-02-27T03:50:13.297Z,53.92
2018-02-27T03:51:13.567Z,53.64
2018-02-27T03:52:13.350Z,53.86
2018-02-27T03:53:13.485Z,53.76
2018-02-27T03:54:13.413Z,53.64
2018-02-27T03:55:13.425Z,53.45
2018-02-27T03:56:13.455Z,53.09
2018-02-27T03:57:13.502Z,53.47
2018-02-27T03:58:13.850Z,52.97
2018-02-27T03:59:13.557Z,53.06
2018-02-27T04:00:13.589Z,53.45
2018-02-27T04:01:13.666Z,52.97
2018-02-27T04:02:13.636Z,53.57
2018-02-27T04:03:13.777Z,53.54
2018-02-27T04:04:13.712Z,53.09
2018-02-27T04:05:14.082Z,52.97
2018-02-27T04:06:13.783Z,52.97
2018-02-27T04:07:13.790Z,53.06
2018-02-27T04:08:13.809Z,53.16
2018-02-27T04:09:14.000Z,53.06
2018-02-27T04:10:13.860Z,53.25
2018-02-27T04:11:13.899Z,53.35
2018-02-27T04:12:14.218Z,53.16
2018-02-27T04:13:13.994Z,53.16
2018-02-27T04:14:14.002Z,53.16
2018-02-27T04:15:14.004Z,53.06
2018-02-27T04:16:14.150Z,53.16
2018-02-27T04:17:14.062Z,53.06
2018-02-27T04:18:14.358Z,53.16
2018-02-27T04:19:14.139Z,53.16
2018-02-27T04:20:14.167Z,53.16
2018-02-27T04:21:14.194Z,53.16
2018-02-27T04:22:14.232Z,53.25
2018-02-27T04:23:14.254Z,53.16
2018-02-27T04:24:14.569Z,52.97
2018-02-27T04:25:14.419Z,53.16
2018-02-27T04:26:14.323Z,53.16
2018-02-27T04:27:14.369Z,53.16
2018-02-27T04:28:14.402Z,53.16
2018-02-27T04:29:14.435Z,53.16
2018-02-27T04:30:14.711Z,53.06
2018-02-27T04:31:14.496Z,53.16
2018-02-27T04:32:14.519Z,53.25
2018-02-27T04:33:14.548Z,53.06
2018-02-27T04:34:14.579Z,53.06
2018-02-27T04:35:14.585Z,53.25
2018-02-27T04:36:14.874Z,53.06
2018-02-27T04:37:14.665Z,53.25
2018-02-27T04:38:14.679Z,53.19
2018-02-27T04:39:14.719Z,53.09
2018-02-27T04:40:14.750Z,53.19
2018-02-27T04:41:14.782Z,53.09
2018-02-27T04:42:15.128Z,53.25
2018-02-27T04:43:14.836Z,53.06
2018-02-27T04:44:14.848Z,53.19
2018-02-27T04:45:14.985Z,52.99
2018-02-27T04:46:14.923Z,53.19
2018-02-27T04:47:14.957Z,53.25
2018-02-27T04:48:15.213Z,53.25
2018-02-27T04:49:14.994Z,53.28
2018-02-27T04:50:15.041Z,53.16
2018-02-27T04:51:15.071Z,53.09
2018-02-27T04:52:15.078Z,53.19
2018-02-27T04:53:15.118Z,53.19
2018-02-27T04:54:15.438Z,53.28
2018-02-27T04:55:15.232Z,53.06
2018-02-27T04:56:15.200Z,53.09
2018-02-27T04:57:15.224Z,53.16
2018-02-27T04:58:15.261Z,53.09
2018-02-27T04:59:15.284Z,53.16
2018-02-27T05:00:15.631Z,53.25
2018-02-27T05:01:15.348Z,53.09
2018-02-27T05:02:15.393Z,53.25
2018-02-27T05:03:15.429Z,53.19
2018-02-27T05:04:15.445Z,53.16
2018-02-27T05:05:15.484Z,53.09
2018-02-27T05:06:15.793Z,53.38
2018-02-27T05:07:15.515Z,53.19
2018-02-27T05:08:15.552Z,53.16
2018-02-27T05:09:15.576Z,53.35
2018-02-27T05:10:15.619Z,52.99
2018-02-27T05:11:15.630Z,53.28
2018-02-27T05:12:15.941Z,53.16
2018-02-27T05:13:15.707Z,53.45
2018-02-27T05:14:15.748Z,52.99
2018-02-27T05:15:15.749Z,53.16
2018-02-27T05:16:15.781Z,53.09
2018-02-27T05:17:15.830Z,53.47
2018-02-27T05:18:16.085Z,53.09
2018-02-27T05:19:15.870Z,53.09
2018-02-27T05:20:15.919Z,52.99
2018-02-27T05:21:15.920Z,53.19
2018-02-27T05:22:15.971Z,53.35
2018-02-27T05:23:16.028Z,53.35
2018-02-27T05:24:16.285Z,53.06
2018-02-27T05:25:16.057Z,52.97
2018-02-27T05:26:16.089Z,53.16
2018-02-27T05:27:16.115Z,53.16
2018-02-27T05:28:16.153Z,53.25
2018-02-27T05:29:16.154Z,53.09
2018-02-27T05:30:16.191Z,53.16
2018-02-27T05:31:16.522Z,53.28
2018-02-27T05:32:16.261Z,53.28
2018-02-27T05:33:16.274Z,53.25
2018-02-27T05:34:16.300Z,53.06
2018-02-27T05:35:16.338Z,53.16
2018-02-27T05:36:16.377Z,52.97
2018-02-27T05:37:16.597Z,52.97
2018-02-27T05:38:16.725Z,53.16
2018-02-27T05:39:16.475Z,53.16
2018-02-27T05:40:16.498Z,53.06
2018-02-27T05:41:16.586Z,53.16
2018-02-27T05:42:16.535Z,53.25
2018-02-27T05:43:16.561Z,53.16
2018-02-27T05:44:16.610Z,52.97
2018-02-27T05:45:16.919Z,53.35
2018-02-27T05:46:16.678Z,53.16
2018-02-27T05:47:16.680Z,53.06
2018-02-27T05:48:16.737Z,53.16
2018-02-27T05:49:16.916Z,53.06
2018-02-27T05:50:16.765Z,53.25
2018-02-27T05:51:16.799Z,53.16
2018-02-27T05:52:17.130Z,53.16
2018-02-27T05:53:16.904Z,53.06
2018-02-27T05:54:16.880Z,53.06
2018-02-27T05:55:16.952Z,53.16
2018-02-27T05:56:16.958Z,53.25
2018-02-27T05:57:16.986Z,53.16
2018-02-27T05:58:17.018Z,53.16
2018-02-27T05:59:17.293Z,53.16
2018-02-27T06:00:17.084Z,53.16
2018-02-27T06:01:17.127Z,53.06
2018-02-27T06:02:17.130Z,53.06
2018-02-27T06:03:17.165Z,53.16
2018-02-27T06:04:17.175Z,53.25
2018-02-27T06:05:17.208Z,53.16
2018-02-27T06:06:17.530Z,53.06
2018-02-27T06:07:17.261Z,53.06
2018-02-27T06:08:17.301Z,53.06
2018-02-27T06:09:17.343Z,53.16
2018-02-27T06:10:17.348Z,53.16
2018-02-27T06:11:17.380Z,53.06
2018-02-27T06:12:17.427Z,53.06
2018-02-27T06:13:17.706Z,53.06
2018-02-27T06:14:17.479Z,53.16
2018-02-27T06:15:17.549Z,53.16
2018-02-27T06:16:17.554Z,53.16
2018-02-27T06:17:17.567Z,53.16
2018-02-27T06:18:17.604Z,53.16
2018-02-27T06:19:17.664Z,53.06
2018-02-27T06:20:17.895Z,53.16
2018-02-27T06:21:17.690Z,53.16
2018-02-27T06:22:17.714Z,52.97
2018-02-27T06:23:17.745Z,53.19
2018-02-27T06:24:17.774Z,52.87
2018-02-27T06:25:17.781Z,52.77
2018-02-27T06:26:17.832Z,53.16
2018-02-27T06:27:18.145Z,52.70
2018-02-27T06:28:18.021Z,52.70
2018-02-27T06:29:17.925Z,52.99
2018-02-27T06:30:17.944Z,52.89
2018-02-27T06:31:17.971Z,52.80
2018-02-27T06:32:17.993Z,52.80
2018-02-27T06:33:18.369Z,52.89
2018-02-27T06:34:18.330Z,52.89
2018-02-27T06:35:18.091Z,52.99
2018-02-27T06:36:18.190Z,53.09
2018-02-27T06:37:18.142Z,52.99
2018-02-27T06:38:18.200Z,53.09
2018-02-27T06:39:18.204Z,53.09
2018-02-27T06:40:18.226Z,52.99
2018-02-27T06:41:18.718Z,52.99
2018-02-27T06:42:18.299Z,52.89
2018-02-27T06:43:18.302Z,52.89
2018-02-27T06:44:18.335Z,52.89
2018-02-27T06:45:18.362Z,52.61
2018-02-27T06:46:18.392Z,52.61
2018-02-27T06:47:18.724Z,52.61
2018-02-27T06:48:18.477Z,52.32
2018-02-27T06:49:18.537Z,52.22
2018-02-27T06:50:18.531Z,52.22
2018-02-27T06:51:18.559Z,52.89
2018-02-27T06:52:18.583Z,52.70
2018-02-27T06:53:18.909Z,52.61
2018-02-27T06:54:18.674Z,52.89
2018-02-27T06:55:18.694Z,52.51
2018-02-27T06:56:18.681Z,52.89
2018-02-27T06:57:18.720Z,52.61
2018-02-27T06:58:18.760Z,52.51
2018-02-27T06:59:19.038Z,52.32
2018-02-27T07:00:18.856Z,52.70
2018-02-27T07:02:18.886Z,52.89
2018-02-27T07:03:18.906Z,53.19
2018-02-27T07:04:18.918Z,53.19
2018-02-27T07:05:19.217Z,52.99
2018-02-27T07:06:19.060Z,53.09
2018-02-27T07:07:19.022Z,53.09
2018-02-27T07:08:19.050Z,52.61
2018-02-27T07:09:19.077Z,52.61
2018-02-27T07:10:19.136Z,52.32
2018-02-27T07:11:19.394Z,52.80
2018-02-27T07:12:19.154Z,52.32
2018-02-27T07:13:19.199Z,52.32
2018-02-27T07:14:19.225Z,52.89
2018-02-27T07:15:19.240Z,52.89
2018-02-27T07:16:19.290Z,52.61
2018-02-27T07:17:19.566Z,52.89
2018-02-27T07:18:19.327Z,52.42
2018-02-27T07:19:19.372Z,52.51
2018-02-27T07:20:19.550Z,52.70
2018-02-27T07:21:19.430Z,52.80
2018-02-27T07:22:19.489Z,52.70
2018-02-27T07:23:19.733Z,52.70
2018-02-27T07:24:19.553Z,52.51
2018-02-27T07:25:19.543Z,52.99
2018-02-27T07:26:19.561Z,52.99
2018-02-27T07:27:19.592Z,52.61
2018-02-27T07:28:19.665Z,52.51
2018-02-27T07:29:19.972Z,52.89
2018-02-27T07:30:19.776Z,52.61
2018-02-27T07:31:19.767Z,52.70
2018-02-27T07:32:19.745Z,52.61
2018-02-27T07:33:19.771Z,52.89
2018-02-27T07:34:19.799Z,52.89
2018-02-27T07:35:20.175Z,52.89
2018-02-27T07:36:19.877Z,52.89
2018-02-27T07:37:19.908Z,52.61
2018-02-27T07:38:19.933Z,52.99
2018-02-27T07:39:19.941Z,52.70
2018-02-27T07:40:20.014Z,52.61
2018-02-27T07:41:20.308Z,52.51
2018-02-27T07:42:20.057Z,52.51
2018-02-27T07:43:20.079Z,52.70
2018-02-27T07:44:20.092Z,52.42
2018-02-27T07:45:20.121Z,52.42
2018-02-27T07:46:20.172Z,52.51
2018-02-27T07:47:20.444Z,52.22
2018-02-27T07:48:20.206Z,52.42
2018-02-27T07:49:20.253Z,52.42
2018-02-27T07:50:20.313Z,52.03
2018-02-27T07:51:20.312Z,52.32
2018-02-27T07:52:20.397Z,52.42
2018-02-27T07:53:20.626Z,51.93
2018-02-27T07:54:20.426Z,52.12
2018-02-27T07:55:20.428Z,52.12
2018-02-27T07:56:20.462Z,52.12
2018-02-27T07:57:20.471Z,52.22
2018-02-27T07:58:20.515Z,52.03
2018-02-27T07:59:20.535Z,52.12
2018-02-27T08:00:20.899Z,52.03
2018-02-27T08:01:20.610Z,52.03
2018-02-27T08:02:20.633Z,52.42
2018-02-27T08:03:20.666Z,52.22
2018-02-27T08:04:20.698Z,52.03
2018-02-27T08:05:20.702Z,52.03
2018-02-27T08:06:20.746Z,52.42
2018-02-27T08:07:21.031Z,52.22
2018-02-27T08:08:20.800Z,52.42
2018-02-27T08:09:20.839Z,52.32
2018-02-27T08:10:20.868Z,52.32
2018-02-27T08:11:20.910Z,51.64
2018-02-27T08:12:20.927Z,52.12
2018-02-27T08:13:20.963Z,51.74
2018-02-27T08:14:21.270Z,52.03
2018-02-27T08:15:21.025Z,51.93
2018-02-27T08:16:21.056Z,52.12
2018-02-27T08:17:21.074Z,52.03
2018-02-27T08:18:21.090Z,51.84
2018-02-27T08:19:21.121Z,52.03
2018-02-27T08:20:21.170Z,52.03
2018-02-27T08:21:21.421Z,51.84
2018-02-27T08:22:21.224Z,51.84
2018-02-27T08:23:21.258Z,52.06
2018-02-27T08:24:21.280Z,51.84
2018-02-27T08:25:21.289Z,52.06
2018-02-27T08:26:21.331Z,51.93
2018-02-27T08:27:21.354Z,51.93
2018-02-27T08:28:21.700Z,51.67
2018-02-27T08:29:21.452Z,51.57
2018-02-27T08:30:21.438Z,51.86
2018-02-27T08:31:21.476Z,51.38
2018-02-27T08:32:21.545Z,51.19
2018-02-27T08:33:21.544Z,51.38
2018-02-27T08:34:21.589Z,51.38
2018-02-27T08:35:21.908Z,51.38
2018-02-27T08:36:21.629Z,51.38
2018-02-27T08:37:21.660Z,51.19
2018-02-27T08:38:21.676Z,51.19
2018-02-27T08:39:21.725Z,50.99
2018-02-27T08:40:21.752Z,51.19
2018-02-27T08:41:21.761Z,51.38
2018-02-27T08:42:22.061Z,51.38
2018-02-27T08:43:21.853Z,51.19
2018-02-27T08:44:21.860Z,51.48
2018-02-27T08:45:21.900Z,51.19
2018-02-27T08:46:21.934Z,50.90
2018-02-27T08:47:21.940Z,50.90
2018-02-27T08:48:21.988Z,51.19
2018-02-27T08:49:22.346Z,51.19
2018-02-27T08:50:22.040Z,50.99
2018-02-27T08:51:22.061Z,51.09
2018-02-27T08:52:22.091Z,50.99
2018-02-27T08:53:22.118Z,50.81
2018-02-27T08:54:22.148Z,51.19
2018-02-27T08:55:22.232Z,50.99
2018-02-27T08:56:22.524Z,50.99
2018-02-27T08:57:22.317Z,51.09
2018-02-27T08:58:22.363Z,51.19
2018-02-27T08:59:22.330Z,50.99
2018-02-27T09:00:22.343Z,50.99
2018-02-27T09:01:22.400Z,51.09
2018-02-27T09:02:22.409Z,51.09
2018-02-27T09:03:22.683Z,51.09
2018-02-27T09:04:22.483Z,51.19
2018-02-27T09:05:22.475Z,51.19
2018-02-27T09:06:22.529Z,50.61
2018-02-27T09:07:22.554Z,50.99
2018-02-27T09:08:22.584Z,50.32
2018-02-27T09:09:22.597Z,50.81
2018-02-27T09:10:22.992Z,50.99
2018-02-27T09:11:22.659Z,50.42
2018-02-27T09:12:22.710Z,50.42
2018-02-27T09:13:22.733Z,50.90
2018-02-27T09:14:22.767Z,50.61
2018-02-27T09:15:22.796Z,50.81
2018-02-27T09:16:23.114Z,50.81
2018-02-27T09:17:22.836Z,50.81
2018-02-27T09:18:22.860Z,50.04
2018-02-27T09:19:22.894Z,50.71
2018-02-27T09:20:23.041Z,50.81
2018-02-27T09:21:22.948Z,50.13
2018-02-27T09:22:23.289Z,50.04
2018-02-27T09:23:23.010Z,50.13
2018-02-27T09:24:23.043Z,50.42
2018-02-27T09:25:23.244Z,50.81
2018-02-27T09:26:23.118Z,50.32
2018-02-27T09:27:23.161Z,50.32
2018-02-27T09:28:23.464Z,50.71
2018-02-27T09:29:23.205Z,50.42
2018-02-27T09:30:23.226Z,50.81
2018-02-27T09:31:23.305Z,50.81
2018-02-27T09:32:23.307Z,50.81
2018-02-27T09:33:23.353Z,50.61
2018-02-27T09:34:23.646Z,50.71
2018-02-27T09:35:23.399Z,50.71
2018-02-27T09:36:23.401Z,50.90
2018-02-27T09:37:23.456Z,50.61
2018-02-27T09:38:23.495Z,50.81
2018-02-27T09:39:23.496Z,50.32
2018-02-27T09:40:23.828Z,50.61
2018-02-27T09:41:23.630Z,50.51
2018-02-27T09:42:23.600Z,50.81
2018-02-27T09:43:23.636Z,50.81
2018-02-27T09:44:23.661Z,50.71
2018-02-27T09:45:23.670Z,50.81
2018-02-27T09:46:24.015Z,50.81
2018-02-27T09:47:23.726Z,50.61
2018-02-27T09:48:23.758Z,50.71
2018-02-27T09:49:23.803Z,50.90
2018-02-27T09:50:23.834Z,50.90
2018-02-27T09:51:23.869Z,50.90
2018-02-27T09:52:24.178Z,50.81
2018-02-27T09:53:23.927Z,50.99
2018-02-27T09:54:23.951Z,50.81
2018-02-27T09:55:23.996Z,50.51
2018-02-27T09:56:24.094Z,50.42
2018-02-27T09:57:24.030Z,50.42
2018-02-27T09:58:24.321Z,50.42
2018-02-27T09:59:24.086Z,50.23
2018-02-27T10:00:24.137Z,49.94
2018-02-27T10:01:24.163Z,50.51
2018-02-27T10:02:24.194Z,49.94
2018-02-27T10:03:24.266Z,50.13
2018-02-27T10:04:24.544Z,50.04
2018-02-27T10:05:24.285Z,50.42
2018-02-27T10:06:24.297Z,50.23
2018-02-27T10:07:24.326Z,49.94
2018-02-27T10:08:24.377Z,50.32
2018-02-27T10:09:24.381Z,50.23
2018-02-27T10:10:24.720Z,50.32
2018-02-27T10:11:24.457Z,50.13
2018-02-27T10:12:24.522Z,50.32
2018-02-27T10:13:24.518Z,50.23
2018-02-27T10:14:24.536Z,50.23
2018-02-27T10:15:25.222Z,50.23
2018-02-27T10:16:24.844Z,50.23
2018-02-27T10:17:24.658Z,50.32
2018-02-27T10:18:24.667Z,50.23
2018-02-27T10:19:24.696Z,50.23
2018-02-27T10:20:24.802Z,50.42
2018-02-27T10:21:24.738Z,50.04
2018-02-27T10:22:25.084Z,50.04
2018-02-27T10:23:24.800Z,50.23
2018-02-27T10:24:24.839Z,50.23
2018-02-27T10:25:24.860Z,50.06
2018-02-27T10:26:24.914Z,49.96
2018-02-27T10:27:24.927Z,50.06
2018-02-27T10:28:25.021Z,49.96
2018-02-27T10:29:24.981Z,49.77
2018-02-27T10:30:26.986Z,50.06
2018-02-27T10:31:25.058Z,50.06
2018-02-27T10:32:25.123Z,50.25
2018-02-27T10:33:25.100Z,49.77
2018-02-27T10:34:25.132Z,50.25
2018-02-27T10:35:25.489Z,49.87
2018-02-27T10:36:25.212Z,49.87
2018-02-27T10:37:25.237Z,49.96
2018-02-27T10:38:25.247Z,49.87
2018-02-27T10:39:25.326Z,49.87
2018-02-27T10:40:25.325Z,49.77
2018-02-27T10:41:25.362Z,49.96
2018-02-27T10:42:25.624Z,50.06
2018-02-27T10:43:25.418Z,50.06
2018-02-27T10:44:25.438Z,49.96
2018-02-27T10:45:25.459Z,49.96
2018-02-27T10:46:25.519Z,50.06
2018-02-27T10:47:25.518Z,50.15
2018-02-27T10:48:27.746Z,50.15
2018-02-27T10:49:25.886Z,50.15
2018-02-27T10:50:26.112Z,50.06
2018-02-27T10:51:25.648Z,49.96
2018-02-27T10:52:25.671Z,50.06
2018-02-27T10:53:25.700Z,50.15
2018-02-27T10:54:25.755Z,49.96
2018-02-27T10:55:25.789Z,49.48
2018-02-27T10:56:26.124Z,49.68
2018-02-27T10:57:25.839Z,49.58
2018-02-27T10:58:25.852Z,49.68
2018-02-27T10:59:25.908Z,49.58
2018-02-27T11:00:25.916Z,49.38
2018-02-27T11:01:25.937Z,49.58
2018-02-27T11:02:25.970Z,49.19
2018-02-27T11:03:26.319Z,49.48
2018-02-27T11:04:26.043Z,49.48
2018-02-27T11:05:26.158Z,49.48
2018-02-27T11:06:27.867Z,49.19
2018-02-27T11:08:26.177Z,49.29
2018-02-27T11:09:26.195Z,49.58
2018-02-27T11:10:26.485Z,49.29
2018-02-27T11:11:26.258Z,49.58
2018-02-27T11:12:26.336Z,49.38
2018-02-27T11:13:26.315Z,49.29
2018-02-27T11:14:26.342Z,49.38
2018-02-27T11:15:26.375Z,49.58
2018-02-27T11:16:26.388Z,49.58
2018-02-27T11:17:26.674Z,49.29
2018-02-27T11:18:26.446Z,49.38
2018-02-27T11:19:26.477Z,49.58
2018-02-27T11:20:26.525Z,49.58
2018-02-27T11:21:26.560Z,49.48
2018-02-27T11:22:26.587Z,49.58
2018-02-27T11:23:26.610Z,49.68
2018-02-27T11:24:26.949Z,49.77
2018-02-27T11:25:26.658Z,49.58
2018-02-27T11:26:26.698Z,49.58
2018-02-27T11:27:26.736Z,49.68
2018-02-27T11:28:26.767Z,49.58
2018-02-27T11:29:26.794Z,49.68
2018-02-27T11:30:26.827Z,49.68
2018-02-27T11:31:27.143Z,49.58
2018-02-27T11:32:26.877Z,49.58
2018-02-27T11:33:26.902Z,49.48
2018-02-27T11:34:26.929Z,49.77
2018-02-27T11:35:26.976Z,49.48
2018-02-27T11:36:27.001Z,49.77
2018-02-27T11:37:27.020Z,49.77
2018-02-27T11:38:27.368Z,49.58
2018-02-27T11:39:27.098Z,49.77
2018-02-27T11:40:27.146Z,49.58
2018-02-27T11:41:27.140Z,49.48
2018-02-27T11:42:27.169Z,49.68
2018-02-27T11:43:27.453Z,49.58
2018-02-27T11:44:27.425Z,49.87
2018-02-27T11:45:27.578Z,49.77
2018-02-27T11:46:27.312Z,49.77
2018-02-27T11:47:27.322Z,49.58
2018-02-27T11:48:27.362Z,49.48
2018-02-27T11:49:27.396Z,49.38
2018-02-27T11:50:27.442Z,49.29
2018-02-27T11:51:27.719Z,49.19
2018-02-27T11:52:27.491Z,49.10
2018-02-27T11:53:27.507Z,49.00
2018-02-27T11:54:27.551Z,49.10
2018-02-27T11:55:27.581Z,49.19
2018-02-27T11:56:27.613Z,49.00
2018-02-27T11:57:27.987Z,49.00
2018-02-27T11:58:27.655Z,49.00
2018-02-27T11:59:27.680Z,49.29
2018-02-27T12:00:27.818Z,49.00
2018-02-27T12:01:27.744Z,49.00
2018-02-27T12:02:27.793Z,49.00
2018-02-27T12:03:28.121Z,49.00
2018-02-27T12:04:27.847Z,48.90
2018-02-27T12:05:27.902Z,49.10
2018-02-27T12:06:27.918Z,49.00
2018-02-27T12:07:27.949Z,49.29
2018-02-27T12:08:27.966Z,49.29
2018-02-27T12:09:28.260Z,49.29
2018-02-27T12:10:28.498Z,49.29
2018-02-27T12:11:28.080Z,49.48
2018-02-27T12:12:28.093Z,49.48
2018-02-27T12:13:28.129Z,49.38
2018-02-27T12:14:28.151Z,49.38
2018-02-27T12:15:28.644Z,49.10
2018-02-27T12:16:28.222Z,49.38
2018-02-27T12:17:28.279Z,49.48
2018-02-27T12:18:28.258Z,49.29
2018-02-27T12:19:28.315Z,49.10
2018-02-27T12:20:28.322Z,49.48
2018-02-27T12:21:28.594Z,49.48
2018-02-27T12:22:28.378Z,49.48
2018-02-27T12:23:28.432Z,49.58
2018-02-27T12:24:28.477Z,49.58
2018-02-27T12:25:28.464Z,49.10
2018-02-27T12:26:28.518Z,49.00
2018-02-27T12:27:28.846Z,48.90
2018-02-27T12:28:28.576Z,49.00
2018-02-27T12:29:28.586Z,48.71
2018-02-27T12:30:28.620Z,48.71
2018-02-27T12:31:28.663Z,48.93
2018-02-27T12:32:28.696Z,48.81
2018-02-27T12:33:29.046Z,48.81
2018-02-27T12:34:28.784Z,48.83
2018-02-27T12:35:28.775Z,49.10
2018-02-27T12:36:28.817Z,48.81
2018-02-27T12:37:28.831Z,48.81
2018-02-27T12:38:28.861Z,48.81
2018-02-27T12:39:29.168Z,48.71
2018-02-27T12:40:28.962Z,48.71
2018-02-27T12:41:28.983Z,48.61
2018-02-27T12:42:28.987Z,48.52
2018-02-27T12:43:29.009Z,48.52
2018-02-27T12:44:29.055Z,48.61
2018-02-27T12:45:29.327Z,48.64
2018-02-27T12:46:29.105Z,48.52
2018-02-27T12:47:29.130Z,48.52
2018-02-27T12:48:29.192Z,48.52
2018-02-27T12:49:29.219Z,48.71
2018-02-27T12:50:29.340Z,48.43
2018-02-27T12:51:29.562Z,48.74
2018-02-27T12:52:29.292Z,48.71
2018-02-27T12:53:29.403Z,48.71
2018-02-27T12:54:29.368Z,48.61